createdAt,value
2017-04-09T00:00:40.865Z,5.64
2017-04-09T00:01:29.674Z,5.51
2017-04-09T00:02:18.209Z,5.55
2017-04-09T00:03:07.168Z,5.55
2017-04-09T00:03:55.897Z,5.55
2017-04-09T00:04:44.267Z,5.43
2017-04-09T00:05:32.863Z,5.54
2017-04-09T00:06:21.665Z,5.43
2017-04-09T00:07:10.179Z,5.36
2017-04-09T00:07:58.856Z,5.46
2017-04-09T00:08:47.338Z,5.43
2017-04-09T00:09:35.931Z,5.38
2017-04-09T00:10:25.105Z,5.43
2017-04-09T00:11:13.549Z,5.4
2017-04-09T00:12:01.991Z,5.4
2017-04-09T00:12:50.367Z,5.43
2017-04-09T00:13:39.141Z,5.43
2017-04-09T00:14:28.033Z,5.34
2017-04-09T00:15:16.425Z,5.34
2017-04-09T00:16:05.205Z,5.36
2017-04-09T00:16:54.148Z,5.33
2017-04-09T00:17:42.364Z,5.4
2017-04-09T00:18:30.915Z,5.4
2017-04-09T00:19:19.812Z,5.4
2017-04-09T00:20:08.345Z,5.38
2017-04-09T00:20:56.919Z,5.4
2017-04-09T00:21:45.690Z,5.34
2017-04-09T00:22:34.628Z,5.34
2017-04-09T00:23:22.940Z,5.37
2017-04-09T00:24:11.715Z,5.34
2017-04-09T00:25:00.605Z,5.38
2017-04-09T00:25:49.230Z,5.34
2017-04-09T00:26:37.411Z,5.38
2017-04-09T00:27:26.581Z,5.23
2017-04-09T00:28:14.746Z,5.22
2017-04-09T00:29:03.406Z,5.25
2017-04-09T00:29:52.181Z,5.23
2017-04-09T00:30:40.658Z,5.26
2017-04-09T00:31:29.171Z,5.19
2017-04-09T00:32:15.780Z,5.2
2017-04-09T00:32:55.965Z,5.23
2017-04-09T00:33:36.433Z,5.18
2017-04-09T00:34:16.976Z,5.18
2017-04-09T00:34:58.214Z,5.22
2017-04-09T00:35:38.699Z,5.19
2017-04-09T00:36:19.829Z,5.18
2017-04-09T00:37:00.351Z,5.15
2017-04-09T00:37:40.808Z,5.19
2017-04-09T00:38:21.281Z,5.15
2017-04-09T00:39:01.726Z,5.13
2017-04-09T00:39:42.389Z,5.12
2017-04-09T00:40:22.785Z,5.15
2017-04-09T00:41:04.154Z,5.22
2017-04-09T00:41:44.509Z,5.19
2017-04-09T00:42:24.979Z,5.07
2017-04-09T00:43:05.438Z,5.04
2017-04-09T00:43:45.928Z,5.15
2017-04-09T00:44:26.430Z,5.1
2017-04-09T00:45:06.966Z,5.12
2017-04-09T00:45:47.781Z,5.07
2017-04-09T00:46:28.089Z,5.07
2017-04-09T00:47:08.524Z,5.12
2017-04-09T00:47:49.011Z,5
2017-04-09T00:48:29.414Z,5
2017-04-09T00:49:09.876Z,5.02
2017-04-09T00:49:50.325Z,5
2017-04-09T00:50:30.776Z,4.94
2017-04-09T00:51:11.184Z,4.89
2017-04-09T00:51:51.575Z,4.82
2017-04-09T00:52:32.024Z,4.83
2017-04-09T00:53:12.588Z,4.89
2017-04-09T00:53:53.899Z,4.89
2017-04-09T00:54:34.982Z,4.9
2017-04-09T00:55:16.156Z,4.83
2017-04-09T00:55:56.583Z,4.83
2017-04-09T00:56:37.013Z,4.89
2017-04-09T00:57:17.416Z,4.83
2017-04-09T00:57:58.667Z,4.94
2017-04-09T00:58:39.111Z,4.94
2017-04-09T00:59:19.477Z,4.9
2017-04-09T00:59:59.912Z,4.9
2017-04-09T01:00:41.433Z,4.92
2017-04-09T01:01:22.737Z,4.97
2017-04-09T01:02:03.128Z,4.97
2017-04-09T01:02:43.462Z,4.89
2017-04-09T01:03:23.923Z,4.92
2017-04-09T01:04:04.360Z,4.87
2017-04-09T01:04:44.876Z,4.92
2017-04-09T01:05:25.299Z,4.95
2017-04-09T01:06:05.754Z,4.92
2017-04-09T01:06:46.260Z,4.87
2017-04-09T01:07:26.798Z,4.94
2017-04-09T01:08:07.208Z,4.89
2017-04-09T01:08:47.587Z,4.87
2017-04-09T01:09:28.013Z,4.86
2017-04-09T01:10:08.400Z,4.86
2017-04-09T01:10:48.791Z,4.83
2017-04-09T01:11:29.319Z,4.83
2017-04-09T01:12:09.790Z,4.76
2017-04-09T01:12:50.243Z,4.82
2017-04-09T01:13:32.115Z,4.75
2017-04-09T01:14:12.483Z,4.74
2017-04-09T01:14:53.319Z,4.74
2017-04-09T01:15:33.710Z,4.7
2017-04-09T01:16:14.237Z,4.66
2017-04-09T01:16:55.228Z,4.64
2017-04-09T01:17:35.852Z,4.66
2017-04-09T01:18:17.096Z,4.61
2017-04-09T01:18:57.480Z,4.63
2017-04-09T01:19:38.715Z,4.67
2017-04-09T01:20:19.305Z,4.66
2017-04-09T01:21:00.522Z,4.6
2017-04-09T01:21:41.118Z,4.66
2017-04-09T01:22:21.675Z,4.57
2017-04-09T01:23:02.173Z,4.56
2017-04-09T01:23:42.546Z,4.52
2017-04-09T01:24:22.981Z,4.49
2017-04-09T01:25:03.507Z,4.48
2017-04-09T01:25:44.419Z,4.5
2017-04-09T01:26:24.757Z,4.42
2017-04-09T01:27:05.325Z,4.42
2017-04-09T01:27:45.904Z,4.43
2017-04-09T01:28:26.251Z,4.39
2017-04-09T01:29:06.717Z,4.4
2017-04-09T01:29:47.400Z,4.4
2017-04-09T01:30:27.767Z,4.43
2017-04-09T01:31:09.072Z,4.46
2017-04-09T01:31:49.667Z,4.4
2017-04-09T01:32:30.026Z,4.49
2017-04-09T01:33:10.462Z,4.56
2017-04-09T01:33:50.933Z,4.53
2017-04-09T01:34:32.057Z,4.48
2017-04-09T01:35:13.529Z,4.45
2017-04-09T01:35:55.042Z,4.48
2017-04-09T01:36:36.439Z,4.46
2017-04-09T01:37:17.755Z,4.46
2017-04-09T01:37:59.193Z,4.49
2017-04-09T01:38:39.714Z,4.43
2017-04-09T01:39:21.668Z,4.48
2017-04-09T01:40:02.009Z,4.42
2017-04-09T01:40:42.507Z,4.45
2017-04-09T01:41:23.068Z,4.5
2017-04-09T01:42:03.492Z,4.52
2017-04-09T01:42:44.515Z,4.46
2017-04-09T01:43:24.840Z,4.52
2017-04-09T01:44:07.023Z,4.5
2017-04-09T01:44:49.156Z,4.48
2017-04-09T01:45:30.496Z,4.42
2017-04-09T01:46:11.134Z,4.48
2017-04-09T01:46:51.533Z,4.43
2017-04-09T01:47:32.635Z,4.42
2017-04-09T01:48:13.001Z,4.43
2017-04-09T01:48:54.064Z,4.43
2017-04-09T01:49:34.509Z,4.39
2017-04-09T01:50:14.985Z,4.43
2017-04-09T01:50:55.522Z,4.43
2017-04-09T01:51:36.049Z,4.36
2017-04-09T01:52:16.692Z,4.4
2017-04-09T01:52:57.922Z,4.42
2017-04-09T01:53:38.433Z,4.42
2017-04-09T01:54:19.042Z,4.36
2017-04-09T01:55:00.401Z,4.42
2017-04-09T01:55:40.927Z,4.4
2017-04-09T01:56:24.097Z,4.36
2017-04-09T01:57:04.563Z,4.31
2017-04-09T01:57:45.328Z,4.3
2017-04-09T01:58:28.120Z,4.32
2017-04-09T01:59:08.596Z,4.32
2017-04-09T01:59:49.730Z,4.25
2017-04-09T02:00:30.142Z,4.32
2017-04-09T02:01:11.720Z,4.36
2017-04-09T02:01:52.185Z,4.31
2017-04-09T02:02:33.491Z,4.24
2017-04-09T02:03:14.087Z,4.25
2017-04-09T02:03:54.520Z,4.22
2017-04-09T02:04:34.941Z,4.2
2017-04-09T02:05:15.564Z,4.18
2017-04-09T02:05:56.266Z,4.24
2017-04-09T02:06:36.686Z,4.21
2017-04-09T02:07:17.263Z,4.18
2017-04-09T02:07:57.594Z,4.34
2017-04-09T02:08:38.002Z,4.39
2017-04-09T02:09:19.152Z,4.36
2017-04-09T02:10:00.134Z,4.38
2017-04-09T02:10:41.153Z,4.34
2017-04-09T02:11:22.391Z,4.36
2017-04-09T02:12:02.985Z,4.31
2017-04-09T02:12:43.442Z,4.28
2017-04-09T02:13:25.426Z,4.31
2017-04-09T02:14:06.626Z,4.34
2017-04-09T02:14:46.980Z,4.34
2017-04-09T02:15:27.424Z,4.34
2017-04-09T02:16:08.136Z,4.24
2017-04-09T02:16:48.463Z,4.25
2017-04-09T02:17:29.108Z,4.28
2017-04-09T02:18:09.686Z,4.28
2017-04-09T02:18:50.096Z,4.25
2017-04-09T02:19:30.630Z,4.24
2017-04-09T02:20:11.010Z,4.27
2017-04-09T02:20:51.461Z,4.22
2017-04-09T02:21:31.905Z,4.18
2017-04-09T02:22:12.319Z,4.3
2017-04-09T02:22:53.797Z,4.27
2017-04-09T02:23:34.234Z,4.14
2017-04-09T02:24:14.651Z,4.21
2017-04-09T02:24:55.020Z,4.21
2017-04-09T02:25:35.593Z,4.24
2017-04-09T02:26:16.172Z,4.2
2017-04-09T02:26:56.659Z,4.14
2017-04-09T02:27:37.661Z,4.2
2017-04-09T02:28:18.148Z,4.2
2017-04-09T02:28:58.613Z,4.18
2017-04-09T02:29:39.075Z,4.18
2017-04-09T02:30:19.634Z,4.1
2017-04-09T02:31:00.776Z,4.03
2017-04-09T02:31:41.200Z,4.14
2017-04-09T02:32:21.687Z,4.09
2017-04-09T02:33:02.251Z,4.02
2017-04-09T02:33:42.597Z,4.12
2017-04-09T02:34:23.157Z,4.16
2017-04-09T02:35:04.337Z,4.16
2017-04-09T02:35:44.763Z,4.13
2017-04-09T02:36:25.222Z,4.13
2017-04-09T02:37:05.692Z,4.18
2017-04-09T02:37:46.219Z,4.16
2017-04-09T02:38:26.650Z,4.14
2017-04-09T02:39:07.180Z,4.18
2017-04-09T02:39:48.473Z,4.16
2017-04-09T02:40:28.891Z,4.04
2017-04-09T02:41:09.239Z,4.2
2017-04-09T02:41:50.732Z,4.06
2017-04-09T02:42:31.871Z,4.14
2017-04-09T02:43:12.306Z,4.12
2017-04-09T02:43:52.679Z,4.04
2017-04-09T02:44:33.127Z,4.04
2017-04-09T02:45:14.398Z,4.13
2017-04-09T02:45:55.093Z,4.02
2017-04-09T02:46:35.509Z,4.03
2017-04-09T02:47:15.968Z,4.12
2017-04-09T02:47:56.362Z,4.02
2017-04-09T02:48:36.858Z,4.16
2017-04-09T02:49:17.631Z,4.12
2017-04-09T02:49:58.036Z,4.18
2017-04-09T02:50:38.464Z,4.12
2017-04-09T02:51:18.810Z,4.13
2017-04-09T02:51:59.535Z,4.09
2017-04-09T02:52:40.133Z,4.02
2017-04-09T02:53:21.034Z,4.12
2017-04-09T02:54:01.471Z,4.06
2017-04-09T02:54:41.917Z,4.03
2017-04-09T02:55:22.316Z,4.07
2017-04-09T02:56:02.810Z,3.96
2017-04-09T02:56:43.263Z,3.86
2017-04-09T02:57:23.714Z,3.88
2017-04-09T02:58:04.337Z,3.92
2017-04-09T02:58:45.643Z,3.92
2017-04-09T02:59:26.688Z,3.91
2017-04-09T03:00:07.115Z,3.88
2017-04-09T03:00:47.598Z,3.92
2017-04-09T03:01:28.030Z,3.96
2017-04-09T03:02:08.583Z,4
2017-04-09T03:02:48.940Z,4.02
2017-04-09T03:03:30.413Z,3.96
2017-04-09T03:04:10.880Z,4.07
2017-04-09T03:04:52.126Z,4.06
2017-04-09T03:05:32.513Z,4.06
2017-04-09T03:06:13.063Z,3.95
2017-04-09T03:06:53.449Z,4.1
2017-04-09T03:07:33.900Z,4
2017-04-09T03:08:14.384Z,3.95
2017-04-09T03:08:54.884Z,3.95
2017-04-09T03:09:35.428Z,4.1
2017-04-09T03:10:15.905Z,4.03
2017-04-09T03:10:56.276Z,4.02
2017-04-09T03:11:36.760Z,3.96
2017-04-09T03:12:17.207Z,3.88
2017-04-09T03:12:58.097Z,3.91
2017-04-09T03:13:38.581Z,3.96
2017-04-09T03:14:18.963Z,3.91
2017-04-09T03:14:59.438Z,3.91
2017-04-09T03:15:39.899Z,3.86
2017-04-09T03:16:20.277Z,3.94
2017-04-09T03:17:00.673Z,3.91
2017-04-09T03:17:41.139Z,3.88
2017-04-09T03:18:21.552Z,3.85
2017-04-09T03:19:02.009Z,3.86
2017-04-09T03:19:43.079Z,3.86
2017-04-09T03:20:23.539Z,3.91
2017-04-09T03:21:04.113Z,3.88
2017-04-09T03:21:44.688Z,3.91
2017-04-09T03:22:25.176Z,3.89
2017-04-09T03:23:05.544Z,3.86
2017-04-09T03:23:46.036Z,3.89
2017-04-09T03:24:26.480Z,3.92
2017-04-09T03:25:07.078Z,3.84
2017-04-09T03:25:47.451Z,3.85
2017-04-09T03:27:38.243Z,3.92
2017-04-09T03:28:26.576Z,3.91
2017-04-09T03:29:14.818Z,3.77
2017-04-09T03:30:03.626Z,3.78
2017-04-09T03:30:52.911Z,3.78
2017-04-09T03:31:41.641Z,3.74
2017-04-09T03:32:30.389Z,3.85
2017-04-09T03:33:18.828Z,3.86
2017-04-09T03:35:40.297Z,3.85
2017-04-09T03:36:28.630Z,3.81
2017-04-09T03:37:17.141Z,3.76
2017-04-09T03:38:05.728Z,3.84
2017-04-09T03:38:54.405Z,3.82
2017-04-09T03:39:43.148Z,3.78
2017-04-09T03:40:31.742Z,3.91
2017-04-09T03:41:20.502Z,3.78
2017-04-09T03:42:09.433Z,3.78
2017-04-09T03:42:57.887Z,3.74
2017-04-09T03:43:46.580Z,3.88
2017-04-09T03:44:35.202Z,3.84
2017-04-09T03:45:23.564Z,3.84
2017-04-09T03:46:11.970Z,3.76
2017-04-09T03:47:00.918Z,3.77
2017-04-09T03:47:50.173Z,3.77
2017-04-09T03:48:38.648Z,3.74
2017-04-09T03:49:27.429Z,3.74
2017-04-09T03:50:16.040Z,3.73
2017-04-09T03:51:04.647Z,3.78
2017-04-09T03:51:53.453Z,3.76
2017-04-09T03:52:41.993Z,3.76
2017-04-09T03:53:30.893Z,3.77
2017-04-09T03:54:19.197Z,3.78
2017-04-09T03:55:07.938Z,3.77
2017-04-09T03:55:56.585Z,3.81
2017-04-09T03:56:45.168Z,3.74
2017-04-09T03:57:33.908Z,3.77
2017-04-09T03:58:22.900Z,3.82
2017-04-09T03:59:11.307Z,3.77
2017-04-09T03:59:59.914Z,3.71
2017-04-09T04:00:48.461Z,3.66
2017-04-09T04:01:37.063Z,3.71
2017-04-09T04:02:25.665Z,3.73
2017-04-09T04:03:14.802Z,3.71
2017-04-09T04:04:03.146Z,3.73
2017-04-09T04:04:52.054Z,3.68
2017-04-09T04:05:40.779Z,3.73
2017-04-09T04:06:29.488Z,3.71
2017-04-09T04:07:18.362Z,3.68
2017-04-09T04:08:06.580Z,3.64
2017-04-09T04:08:55.522Z,3.76
2017-04-09T04:09:43.629Z,3.64
2017-04-09T04:10:32.425Z,3.68
2017-04-09T04:11:21.150Z,3.68
2017-04-09T04:12:09.632Z,3.67
2017-04-09T04:12:58.464Z,3.61
2017-04-09T04:13:47.286Z,3.67
2017-04-09T04:14:35.675Z,3.66
2017-04-09T04:15:24.475Z,3.68
2017-04-09T04:16:13.366Z,3.63
2017-04-09T04:17:01.632Z,3.64
2017-04-09T04:17:50.355Z,3.61
2017-04-09T04:18:39.314Z,3.55
2017-04-09T04:19:27.578Z,3.5
2017-04-09T04:20:16.832Z,3.56
2017-04-09T04:21:05.418Z,3.55
2017-04-09T04:21:53.951Z,3.55
2017-04-09T04:22:42.810Z,3.53
2017-04-09T04:23:31.478Z,3.49
2017-04-09T04:24:20.313Z,3.55
2017-04-09T04:25:08.886Z,3.58
2017-04-09T04:25:57.177Z,3.5
2017-04-09T04:26:45.963Z,3.49
2017-04-09T04:27:34.448Z,3.56
2017-04-09T04:28:23.304Z,3.53
2017-04-09T04:29:12.061Z,3.5
2017-04-09T04:30:00.686Z,3.5
2017-04-09T04:30:49.294Z,3.49
2017-04-09T04:31:37.554Z,3.5
2017-04-09T04:32:26.503Z,3.56
2017-04-09T04:33:15.352Z,3.49
2017-04-09T04:34:03.771Z,3.52
2017-04-09T04:34:52.114Z,3.45
2017-04-09T04:35:41.394Z,3.41
2017-04-09T04:36:29.926Z,3.41
2017-04-09T04:37:18.163Z,3.37
2017-04-09T04:38:06.684Z,3.37
2017-04-09T04:38:55.964Z,3.46
2017-04-09T04:39:44.260Z,3.36
2017-04-09T04:40:33.012Z,3.46
2017-04-09T04:41:21.800Z,3.49
2017-04-09T04:42:10.282Z,3.49
2017-04-09T04:42:59.365Z,3.37
2017-04-09T04:43:47.545Z,3.49
2017-04-09T04:44:36.398Z,3.45
2017-04-09T04:45:25.386Z,3.5
2017-04-09T04:46:13.945Z,3.48
2017-04-09T04:47:02.172Z,3.45
2017-04-09T04:47:50.964Z,3.43
2017-04-09T04:48:39.866Z,3.5
2017-04-09T04:49:28.119Z,3.52
2017-04-09T04:50:16.863Z,3.41
2017-04-09T04:51:05.505Z,3.43
2017-04-09T04:51:54.027Z,3.43
2017-04-09T04:52:42.929Z,3.41
2017-04-09T04:53:31.154Z,3.46
2017-04-09T04:54:19.980Z,3.4
2017-04-09T04:55:08.422Z,3.45
2017-04-09T04:55:56.949Z,3.46
2017-04-09T04:56:45.815Z,3.46
2017-04-09T04:57:34.132Z,3.49
2017-04-09T04:58:22.983Z,3.5
2017-04-09T04:59:11.798Z,3.45
2017-04-09T05:00:00.047Z,3.46
2017-04-09T05:00:48.583Z,3.45
2017-04-09T05:01:37.685Z,3.4
2017-04-09T05:02:25.833Z,3.41
2017-04-09T05:03:14.462Z,3.37
2017-04-09T05:04:03.006Z,3.37
2017-04-09T05:04:51.644Z,3.41
2017-04-09T05:05:40.413Z,3.46
2017-04-09T05:06:28.960Z,3.41
2017-04-09T05:07:17.885Z,3.45
2017-04-09T05:08:06.454Z,3.45
2017-04-09T05:08:54.954Z,3.48
2017-04-09T05:09:43.552Z,3.43
2017-04-09T05:10:32.423Z,3.4
2017-04-09T05:11:21.287Z,3.5
2017-04-09T05:12:09.503Z,3.53
2017-04-09T05:12:58.292Z,3.58
2017-04-09T05:13:46.991Z,3.63
2017-04-09T05:14:35.795Z,3.61
2017-04-09T05:15:24.183Z,3.7
2017-04-09T05:16:13.277Z,3.73
2017-04-09T05:17:02.361Z,3.73
2017-04-09T05:17:50.847Z,3.68
2017-04-09T05:18:39.512Z,3.7
2017-04-09T05:19:28.030Z,3.67
2017-04-09T05:20:16.660Z,3.7
2017-04-09T05:21:05.281Z,3.74
2017-04-09T05:21:53.667Z,3.7
2017-04-09T05:22:42.392Z,3.71
2017-04-09T05:23:30.851Z,3.78
2017-04-09T05:24:20.074Z,3.77
2017-04-09T05:25:08.170Z,3.78
2017-04-09T05:25:57.390Z,3.84
2017-04-09T05:26:45.497Z,3.88
2017-04-09T05:27:34.165Z,3.81
2017-04-09T05:28:23.086Z,3.88
2017-04-09T05:29:11.663Z,3.84
2017-04-09T05:30:00.491Z,3.88
2017-04-09T05:30:48.839Z,3.91
2017-04-09T05:31:37.864Z,3.94
2017-04-09T05:32:26.014Z,4.06
2017-04-09T05:33:15.093Z,4.03
2017-04-09T05:34:03.387Z,4.12
2017-04-09T05:34:52.042Z,4.2
2017-04-09T05:35:40.940Z,4.12
2017-04-09T05:36:29.207Z,4.14
2017-04-09T05:37:17.899Z,4.27
2017-04-09T05:38:06.408Z,4.25
2017-04-09T05:38:55.194Z,4.25
2017-04-09T05:39:44.402Z,4.4
2017-04-09T05:40:32.924Z,4.4
2017-04-09T05:41:21.533Z,4.45
2017-04-09T05:42:09.912Z,4.4
2017-04-09T05:42:58.817Z,4.5
2017-04-09T05:43:47.644Z,4.6
2017-04-09T05:44:36.261Z,4.63
2017-04-09T05:45:25.336Z,4.7
2017-04-09T05:46:13.673Z,4.68
2017-04-09T05:47:02.967Z,4.7
2017-04-09T05:47:51.404Z,4.82
2017-04-09T05:48:39.680Z,4.87
2017-04-09T05:49:28.502Z,5.04
2017-04-09T05:50:19.510Z,5.08
2017-04-09T05:51:08.057Z,5.15
2017-04-09T05:51:56.387Z,5.15
2017-04-09T05:52:45.141Z,5.26
2017-04-09T05:53:34.182Z,5.38
2017-04-09T05:54:22.835Z,5.38
2017-04-09T05:55:11.176Z,5.44
2017-04-09T05:56:00.038Z,5.55
2017-04-09T05:56:49.017Z,5.61
2017-04-09T05:57:36.969Z,5.67
2017-04-09T05:58:34.672Z,5.84
2017-04-09T06:00:12.653Z,6.06
2017-04-09T06:01:01.074Z,6.15
2017-04-09T06:01:50.170Z,6.28
2017-04-09T06:03:41.016Z,6.64
2017-04-09T06:04:29.366Z,6.74
2017-04-09T06:05:17.726Z,6.75
2017-04-09T06:06:06.414Z,6.83
2017-04-09T06:06:55.550Z,6.96
2017-04-09T06:07:44.187Z,7.04
2017-04-09T06:08:33.652Z,7.1
2017-04-09T06:09:21.935Z,7.26
2017-04-09T06:10:10.084Z,7.33
2017-04-09T06:10:59.067Z,7.39
2017-04-09T06:11:47.975Z,7.48
2017-04-09T06:12:36.273Z,7.62
2017-04-09T06:13:25.058Z,7.78
2017-04-09T06:14:14.060Z,7.87
2017-04-09T06:15:02.068Z,7.93
2017-04-09T06:15:51.014Z,8.11
2017-04-09T06:16:40.004Z,8.08
2017-04-09T06:17:28.570Z,8.11
2017-04-09T06:18:16.735Z,8.2
2017-04-09T06:19:05.595Z,8.36
2017-04-09T06:19:54.482Z,8.44
2017-04-09T06:20:42.711Z,8.52
2017-04-09T06:21:31.377Z,8.54
2017-04-09T06:22:20.236Z,8.66
2017-04-09T06:23:08.948Z,8.74
2017-04-09T06:23:57.774Z,8.79
2017-04-09T06:24:46.038Z,8.9
2017-04-09T06:25:34.627Z,8.93
2017-04-09T06:26:23.542Z,9.03
2017-04-09T06:27:11.785Z,9.19
2017-04-09T06:28:00.992Z,9.36
2017-04-09T06:28:49.389Z,9.39
2017-04-09T06:29:37.687Z,9.34
2017-04-09T06:30:26.637Z,9.44
2017-04-09T06:31:16.131Z,9.59
2017-04-09T06:32:04.051Z,9.64
2017-04-09T06:32:52.947Z,9.85
2017-04-09T06:33:41.264Z,9.84
2017-04-09T06:34:30.117Z,9.87
2017-04-09T06:35:18.604Z,9.97
2017-04-09T06:36:07.477Z,10.18
2017-04-09T06:36:55.631Z,10.23
2017-04-09T06:37:44.204Z,10.34
2017-04-09T06:38:33.446Z,10.41
2017-04-09T06:39:21.710Z,10.57
2017-04-09T06:40:10.572Z,10.65
2017-04-09T06:40:58.795Z,10.77
2017-04-09T06:41:47.032Z,10.76
2017-04-09T06:42:36.147Z,10.98
2017-04-09T06:43:25.014Z,11.08
2017-04-09T06:44:12.790Z,11.13
2017-04-09T06:44:59.790Z,11.34
2017-04-09T06:45:48.802Z,11.38
2017-04-09T06:46:37.469Z,11.4
2017-04-09T06:47:26.514Z,11.45
2017-04-09T06:48:14.642Z,11.55
2017-04-09T06:49:03.568Z,11.6
2017-04-09T06:49:52.035Z,11.73
2017-04-09T06:50:40.436Z,11.77
2017-04-09T06:51:29.351Z,11.93
2017-04-09T06:52:17.618Z,11.91
2017-04-09T06:53:06.571Z,12.02
2017-04-09T06:53:55.038Z,12.05
2017-04-09T06:54:43.910Z,12.07
2017-04-09T06:55:32.560Z,12.18
2017-04-09T06:56:20.752Z,12.26
2017-04-09T06:57:09.554Z,12.21
2017-04-09T06:57:57.996Z,12.25
2017-04-09T06:58:46.813Z,12.2
2017-04-09T06:59:27.920Z,12.47
2017-04-09T07:00:11.035Z,12.44
2017-04-09T07:00:52.101Z,12.58
2017-04-09T07:01:32.531Z,12.65
2017-04-09T07:02:12.958Z,12.63
2017-04-09T07:02:53.414Z,12.65
2017-04-09T07:03:33.766Z,12.73
2017-04-09T07:04:14.170Z,12.9
2017-04-09T07:04:55.497Z,12.94
2017-04-09T07:05:36.109Z,13.05
2017-04-09T07:06:16.508Z,13.06
2017-04-09T07:06:56.935Z,13.11
2017-04-09T07:07:37.333Z,13.17
2017-04-09T07:08:17.744Z,13.21
2017-04-09T07:08:58.142Z,13.28
2017-04-09T07:09:38.584Z,13.37
2017-04-09T07:10:18.977Z,13.37
2017-04-09T07:10:59.344Z,13.43
2017-04-09T07:11:39.834Z,13.45
2017-04-09T07:12:21.083Z,13.58
2017-04-09T07:13:01.499Z,13.57
2017-04-09T07:13:41.875Z,13.61
2017-04-09T07:14:22.341Z,13.62
2017-04-09T07:15:02.729Z,13.75
2017-04-09T07:15:43.159Z,13.65
2017-04-09T07:16:23.630Z,13.83
2017-04-09T07:17:04.005Z,13.93
2017-04-09T07:17:44.397Z,13.97
2017-04-09T07:18:24.831Z,14.05
2017-04-09T07:19:05.273Z,13.98
2017-04-09T07:19:45.633Z,14.11
2017-04-09T07:20:26.074Z,14.07
2017-04-09T07:22:05.812Z,14.25
2017-04-09T07:22:54.095Z,14.31
2017-04-09T07:25:14.974Z,14.49
2017-04-09T07:27:05.373Z,14.73
2017-04-09T07:27:53.572Z,14.74
2017-04-09T07:28:41.995Z,14.81
2017-04-09T07:29:29.126Z,14.82
2017-04-09T07:30:14.924Z,14.9
2017-04-09T07:30:55.355Z,15.04
2017-04-09T07:31:35.744Z,15.04
2017-04-09T07:32:16.155Z,15.11
2017-04-09T07:32:56.598Z,15.08
2017-04-09T07:33:36.990Z,15.22
2017-04-09T07:34:17.418Z,15.15
2017-04-09T07:34:57.844Z,15.3
2017-04-09T07:35:38.244Z,15.43
2017-04-09T07:36:18.667Z,15.44
2017-04-09T07:36:59.063Z,15.44
2017-04-09T07:37:39.442Z,15.62
2017-04-09T07:38:19.908Z,15.59
2017-04-09T07:39:00.261Z,15.66
2017-04-09T07:39:40.675Z,15.81
2017-04-09T07:40:21.074Z,15.85
2017-04-09T07:41:01.468Z,15.87
2017-04-09T07:41:41.893Z,15.87
2017-04-09T07:42:22.304Z,15.92
2017-04-09T07:43:02.715Z,15.96
2017-04-09T07:43:43.120Z,15.91
2017-04-09T07:44:23.536Z,15.92
2017-04-09T07:45:03.980Z,16.03
2017-04-09T07:45:44.405Z,16
2017-04-09T07:46:24.830Z,16.06
2017-04-09T07:47:05.255Z,16.08
2017-04-09T07:47:45.670Z,16.16
2017-04-09T07:48:26.105Z,16.16
2017-04-09T07:49:06.492Z,16.21
2017-04-09T07:49:46.923Z,16.25
2017-04-09T07:50:27.365Z,16.46
2017-04-09T07:51:07.945Z,16.49
2017-04-09T07:51:48.357Z,16.61
2017-04-09T07:52:28.728Z,16.68
2017-04-09T07:53:09.170Z,16.83
2017-04-09T07:53:49.625Z,16.89
2017-04-09T07:54:30.019Z,17.01
2017-04-09T07:55:10.399Z,17.27
2017-04-09T07:55:50.852Z,17.63
2017-04-09T07:56:31.242Z,18.09
2017-04-09T07:57:11.711Z,18.76
2017-04-09T07:57:52.063Z,19.42
2017-04-09T07:58:32.526Z,20.21
2017-04-09T07:59:12.968Z,20.98
2017-04-09T07:59:53.352Z,21.84
2017-04-09T08:00:34.104Z,22.61
2017-04-09T08:01:14.553Z,23.42
2017-04-09T08:01:55.029Z,24.1
2017-04-09T08:02:35.383Z,24.81
2017-04-09T08:03:15.825Z,25.48
2017-04-09T08:03:56.277Z,26.11
2017-04-09T08:04:36.692Z,26.85
2017-04-09T08:05:17.347Z,27.35
2017-04-09T08:05:57.770Z,27.95
2017-04-09T08:06:38.324Z,28.56
2017-04-09T08:07:18.572Z,29.06
2017-04-09T08:07:58.967Z,29.47
2017-04-09T08:08:39.361Z,29.87
2017-04-09T08:09:19.825Z,30.31
2017-04-09T08:10:00.268Z,30.59
2017-04-09T08:10:40.669Z,30.88
2017-04-09T08:11:21.084Z,31.18
2017-04-09T08:12:01.853Z,31.5
2017-04-09T08:12:43.053Z,31.82
2017-04-09T08:13:23.934Z,32.24
2017-04-09T08:14:04.369Z,32.49
2017-04-09T08:14:44.915Z,32.73
2017-04-09T08:15:26.232Z,32.86
2017-04-09T08:16:07.457Z,32.91
2017-04-09T08:16:48.092Z,32.91
2017-04-09T08:17:28.796Z,32.78
2017-04-09T08:18:11.373Z,32.79
2017-04-09T08:18:51.279Z,32.86
2017-04-09T08:19:31.703Z,32.86
2017-04-09T08:20:12.107Z,32.91
2017-04-09T08:20:52.525Z,32.93
2017-04-09T08:21:33.538Z,33.1
2017-04-09T08:22:13.909Z,33.2
2017-04-09T08:22:54.511Z,33.45
2017-04-09T08:23:34.919Z,33.42
2017-04-09T08:24:15.361Z,33.76
2017-04-09T08:24:55.776Z,34.07
2017-04-09T08:25:36.409Z,34.31
2017-04-09T08:26:16.895Z,34.62
2017-04-09T08:26:57.434Z,34.96
2017-04-09T08:27:37.819Z,35.31
2017-04-09T08:28:18.207Z,35.44
2017-04-09T08:28:58.663Z,35.72
2017-04-09T08:29:39.603Z,36.01
2017-04-09T08:30:20.847Z,36.24
2017-04-09T08:31:01.242Z,36.43
2017-04-09T08:31:41.649Z,36.31
2017-04-09T08:32:22.136Z,36.5
2017-04-09T08:33:02.524Z,36.55
2017-04-09T08:33:43.158Z,36.65
2017-04-09T08:34:23.556Z,36.87
2017-04-09T08:35:04.024Z,37.04
2017-04-09T08:35:44.370Z,37.25
2017-04-09T08:36:24.840Z,37.29
2017-04-09T08:37:05.281Z,37.58
2017-04-09T08:37:46.183Z,37.67
2017-04-09T08:38:26.641Z,37.88
2017-04-09T08:39:07.049Z,37.88
2017-04-09T08:39:47.637Z,37.88
2017-04-09T08:40:28.341Z,38.04
2017-04-09T08:41:08.922Z,38.07
2017-04-09T08:41:49.184Z,38.09
2017-04-09T08:42:29.889Z,38.16
2017-04-09T08:44:07.646Z,38.16
2017-04-09T08:44:50.565Z,38.16
2017-04-09T08:45:31.608Z,38.09
2017-04-09T08:46:11.892Z,38.25
2017-04-09T08:46:52.580Z,38.34
2017-04-09T08:47:33.404Z,38.57
2017-04-09T08:48:13.891Z,38.68
2017-04-09T08:48:55.495Z,38.79
2017-04-09T08:49:35.913Z,39.08
2017-04-09T08:50:16.462Z,39.19
2017-04-09T08:50:56.783Z,39.42
2017-04-09T08:51:37.404Z,39.57
2017-04-09T08:52:17.943Z,39.68
2017-04-09T08:52:58.353Z,39.71
2017-04-09T08:53:38.831Z,39.83
2017-04-09T08:54:19.246Z,39.97
2017-04-09T08:54:59.685Z,39.98
2017-04-09T08:55:40.128Z,40.04
2017-04-09T08:56:21.115Z,40.07
2017-04-09T08:57:01.491Z,40.2
2017-04-09T08:57:41.953Z,40.36
2017-04-09T08:58:22.427Z,40.59
2017-04-09T08:59:02.858Z,40.8
2017-04-09T08:59:43.925Z,40.88
2017-04-09T09:00:24.411Z,40.85
2017-04-09T09:01:04.893Z,40.93
2017-04-09T09:01:45.314Z,41.04
2017-04-09T09:02:25.748Z,41.1
2017-04-09T09:03:06.184Z,41.07
2017-04-09T09:03:46.583Z,41.22
2017-04-09T09:04:26.961Z,41.32
2017-04-09T09:05:07.429Z,41.39
2017-04-09T09:05:47.842Z,41.63
2017-04-09T09:06:28.343Z,41.78
2017-04-09T09:07:09.238Z,41.87
2017-04-09T09:07:49.685Z,41.96
2017-04-09T09:08:30.127Z,42.09
2017-04-09T09:09:10.583Z,42.15
2017-04-09T09:09:50.954Z,42.07
2017-04-09T09:10:31.392Z,41.96
2017-04-09T09:11:11.967Z,41.88
2017-04-09T09:11:52.429Z,41.74
2017-04-09T09:12:32.880Z,41.74
2017-04-09T09:13:13.305Z,41.81
2017-04-09T09:13:53.737Z,41.87
2017-04-09T09:14:34.755Z,41.93
2017-04-09T09:15:14.971Z,42.06
2017-04-09T09:15:56.555Z,42.15
2017-04-09T09:16:37.000Z,42.18
2017-04-09T09:17:17.433Z,42.14
2017-04-09T09:17:58.448Z,41.95
2017-04-09T09:18:38.724Z,41.63
2017-04-09T09:19:19.120Z,41.22
2017-04-09T09:19:59.568Z,40.86
2017-04-09T09:20:39.977Z,40.7
2017-04-09T09:21:20.403Z,40.55
2017-04-09T09:22:00.871Z,40.54
2017-04-09T09:22:41.380Z,40.59
2017-04-09T09:23:21.714Z,40.69
2017-04-09T09:24:02.114Z,40.96
2017-04-09T09:24:42.538Z,41.23
2017-04-09T09:25:23.064Z,41.48
2017-04-09T09:26:03.514Z,41.74
2017-04-09T09:26:43.882Z,41.81
2017-04-09T09:27:24.315Z,41.96
2017-04-09T09:28:04.786Z,42.03
2017-04-09T09:28:45.167Z,42.12
2017-04-09T09:29:25.594Z,42.14
2017-04-09T09:30:06.031Z,42.22
2017-04-09T09:30:46.427Z,42.33
2017-04-09T09:31:26.899Z,42.4
2017-04-09T09:32:07.333Z,42.4
2017-04-09T09:32:47.756Z,42.41
2017-04-09T09:33:28.205Z,42.46
2017-04-09T09:34:08.639Z,42.55
2017-04-09T09:34:49.111Z,42.55
2017-04-09T09:35:29.573Z,42.58
2017-04-09T09:36:10.000Z,42.51
2017-04-09T09:36:50.446Z,42.22
2017-04-09T09:37:30.829Z,42.14
2017-04-09T09:38:11.326Z,42.15
2017-04-09T09:38:51.714Z,42.15
2017-04-09T09:39:32.120Z,42.43
2017-04-09T09:40:12.556Z,42.7
2017-04-09T09:40:52.997Z,42.9
2017-04-09T09:41:33.487Z,42.93
2017-04-09T09:42:13.971Z,43
2017-04-09T09:42:54.368Z,43.05
2017-04-09T09:43:34.870Z,43.14
2017-04-09T09:44:15.334Z,43.28
2017-04-09T09:44:55.781Z,43.49
2017-04-09T09:45:36.192Z,43.57
2017-04-09T09:46:16.624Z,43.73